sensor_id;sensor_type;location;lat;lon;timestamp;P1;durP1;ratioP1;P2;durP2;ratioP2
3663;SDS011;1848;51.042;7.066;2022-10-16T00:01:12;5.50;;;5.00;;
3663;SDS011;1848;51.042;7.066;2022-10-16T00:03:40;8.03;;;5.30;;
3663;SDS011;1848;51.042;7.066;2022-10-16T00:06:08;7.90;;;5.17;;
3663;SDS011;1848;51.042;7.066;2022-10-16T00:08:35;8.03;;;5.00;;
3663;SDS011;1848;51.042;7.066;2022-10-16T00:11:06;10.57;;;5.43;;
3663;SDS011;1848;51.042;7.066;2022-10-16T00:13:35;6.40;;;5.00;;
3663;SDS011;1848;51.042;7.066;2022-10-16T00:16:04;8.00;;;4.93;;
3663;SDS011;1848;51.042;7.066;2022-10-16T00:18:31;5.57;;;4.80;;
3663;SDS011;1848;51.042;7.066;2022-10-16T00:21:04;10.07;;;4.63;;
3663;SDS011;1848;51.042;7.066;2022-10-16T00:23:32;10.87;;;5.33;;
3663;SDS011;1848;51.042;7.066;2022-10-16T00:26:01;6.47;;;5.90;;
3663;SDS011;1848;51.042;7.066;2022-10-16T00:28:30;5.93;;;5.43;;
3663;SDS011;1848;51.042;7.066;2022-10-16T00:30:57;7.03;;;5.10;;
3663;SDS011;1848;51.042;7.066;2022-10-16T00:33:24;4.73;;;4.33;;
3663;SDS011;1848;51.042;7.066;2022-10-16T00:35:50;4.40;;;4.00;;
3663;SDS011;1848;51.042;7.066;2022-10-16T00:38:16;6.07;;;4.53;;
3663;SDS011;1848;51.042;7.066;2022-10-16T00:40:43;5.43;;;4.93;;
3663;SDS011;1848;51.042;7.066;2022-10-16T00:43:12;5.07;;;4.60;;
3663;SDS011;1848;51.042;7.066;2022-10-16T00:45:40;5.20;;;4.70;;
3663;SDS011;1848;51.042;7.066;2022-10-16T00:48:09;5.43;;;4.40;;
3663;SDS011;1848;51.042;7.066;2022-10-16T00:50:38;6.27;;;4.03;;
3663;SDS011;1848;51.042;7.066;2022-10-16T00:53:07;4.50;;;4.10;;
3663;SDS011;1848;51.042;7.066;2022-10-16T00:55:33;4.73;;;3.97;;
3663;SDS011;1848;51.042;7.066;2022-10-16T00:58:05;4.60;;;3.83;;
3663;SDS011;1848;51.042;7.066;2022-10-16T01:00:31;5.37;;;3.50;;
3663;SDS011;1848;51.042;7.066;2022-10-16T01:02:59;4.77;;;4.27;;
3663;SDS011;1848;51.042;7.066;2022-10-16T01:05:37;5.13;;;4.20;;
3663;SDS011;1848;51.042;7.066;2022-10-16T01:08:53;4.30;;;3.90;;
3663;SDS011;1848;51.042;7.066;2022-10-16T01:11:27;4.30;;;3.73;;
3663;SDS011;1848;51.042;7.066;2022-10-16T01:14:00;5.33;;;4.37;;
3663;SDS011;1848;51.042;7.066;2022-10-16T01:16:38;10.53;;;5.33;;
3663;SDS011;1848;51.042;7.066;2022-10-16T01:22:01;6.13;;;5.37;;
3663;SDS011;1848;51.042;7.066;2022-10-16T01:24:42;8.33;;;6.83;;
3663;SDS011;1848;51.042;7.066;2022-10-16T01:27:26;8.03;;;7.17;;
3663;SDS011;1848;51.042;7.066;2022-10-16T01:29:57;8.73;;;5.57;;
3663;SDS011;1848;51.042;7.066;2022-10-16T01:32:40;7.13;;;4.63;;
3663;SDS011;1848;51.042;7.066;2022-10-16T01:35:22;7.23;;;4.70;;
3663;SDS011;1848;51.042;7.066;2022-10-16T01:37:54;6.33;;;4.80;;
3663;SDS011;1848;51.042;7.066;2022-10-16T01:40:29;7.47;;;4.47;;
3663;SDS011;1848;51.042;7.066;2022-10-16T01:42:59;5.80;;;3.80;;
3663;SDS011;1848;51.042;7.066;2022-10-16T01:45:31;4.20;;;3.80;;
3663;SDS011;1848;51.042;7.066;2022-10-16T01:48:00;6.40;;;3.70;;
3663;SDS011;1848;51.042;7.066;2022-10-16T01:50:31;3.93;;;3.63;;
3663;SDS011;1848;51.042;7.066;2022-10-16T01:53:00;4.20;;;3.80;;
3663;SDS011;1848;51.042;7.066;2022-10-16T01:55:29;5.90;;;3.90;;
3663;SDS011;1848;51.042;7.066;2022-10-16T01:57:59;5.30;;;4.63;;
3663;SDS011;1848;51.042;7.066;2022-10-16T02:00:28;5.93;;;4.30;;
3663;SDS011;1848;51.042;7.066;2022-10-16T02:02:56;3.83;;;3.43;;
3663;SDS011;1848;51.042;7.066;2022-10-16T02:05:34;4.90;;;3.87;;
3663;SDS011;1848;51.042;7.066;2022-10-16T02:08:12;4.20;;;3.90;;
3663;SDS011;1848;51.042;7.066;2022-10-16T02:10:38;4.83;;;3.80;;
3663;SDS011;1848;51.042;7.066;2022-10-16T02:13:06;4.30;;;3.90;;
3663;SDS011;1848;51.042;7.066;2022-10-16T02:15:36;3.80;;;3.50;;
3663;SDS011;1848;51.042;7.066;2022-10-16T02:18:03;6.47;;;3.67;;
3663;SDS011;1848;51.042;7.066;2022-10-16T02:23:58;4.00;;;3.43;;
3663;SDS011;1848;51.042;7.066;2022-10-16T02:26:35;4.70;;;3.60;;
3663;SDS011;1848;51.042;7.066;2022-10-16T02:29:10;3.33;;;2.83;;
3663;SDS011;1848;51.042;7.066;2022-10-16T02:31:41;3.47;;;3.17;;
3663;SDS011;1848;51.042;7.066;2022-10-16T02:34:10;4.90;;;3.60;;
3663;SDS011;1848;51.042;7.066;2022-10-16T02:36:38;5.87;;;3.20;;
3663;SDS011;1848;51.042;7.066;2022-10-16T02:39:06;3.70;;;3.00;;
3663;SDS011;1848;51.042;7.066;2022-10-16T02:41:34;5.23;;;3.40;;
3663;SDS011;1848;51.042;7.066;2022-10-16T02:44:00;4.17;;;3.10;;
3663;SDS011;1848;51.042;7.066;2022-10-16T02:46:26;4.83;;;3.27;;
3663;SDS011;1848;51.042;7.066;2022-10-16T02:48:53;3.73;;;3.27;;
3663;SDS011;1848;51.042;7.066;2022-10-16T02:51:19;3.90;;;3.50;;
3663;SDS011;1848;51.042;7.066;2022-10-16T02:53:45;5.00;;;3.40;;
3663;SDS011;1848;51.042;7.066;2022-10-16T02:56:11;6.30;;;3.07;;
3663;SDS011;1848;51.042;7.066;2022-10-16T02:58:38;3.70;;;3.40;;
3663;SDS011;1848;51.042;7.066;2022-10-16T03:01:04;5.67;;;3.37;;
3663;SDS011;1848;51.042;7.066;2022-10-16T03:03:31;4.63;;;3.03;;
3663;SDS011;1848;51.042;7.066;2022-10-16T03:05:57;3.60;;;3.30;;
3663;SDS011;1848;51.042;7.066;2022-10-16T03:08:23;5.30;;;4.03;;
3663;SDS011;1848;51.042;7.066;2022-10-16T03:10:51;6.40;;;3.30;;
3663;SDS011;1848;51.042;7.066;2022-10-16T03:13:18;6.03;;;3.20;;
3663;SDS011;1848;51.042;7.066;2022-10-16T03:15:46;3.57;;;3.27;;
3663;SDS011;1848;51.042;7.066;2022-10-16T03:18:12;5.57;;;3.43;;
3663;SDS011;1848;51.042;7.066;2022-10-16T03:20:39;4.23;;;3.40;;
3663;SDS011;1848;51.042;7.066;2022-10-16T03:23:05;3.03;;;2.83;;
3663;SDS011;1848;51.042;7.066;2022-10-16T03:25:34;3.30;;;3.10;;
3663;SDS011;1848;51.042;7.066;2022-10-16T03:28:00;3.67;;;3.37;;
3663;SDS011;1848;51.042;7.066;2022-10-16T03:30:27;3.30;;;3.00;;
3663;SDS011;1848;51.042;7.066;2022-10-16T03:32:53;3.57;;;3.27;;
3663;SDS011;1848;51.042;7.066;2022-10-16T03:35:20;3.70;;;3.20;;
3663;SDS011;1848;51.042;7.066;2022-10-16T03:37:48;5.80;;;3.30;;
3663;SDS011;1848;51.042;7.066;2022-10-16T03:40:14;9.60;;;3.43;;
3663;SDS011;1848;51.042;7.066;2022-10-16T03:42:42;5.20;;;3.33;;
3663;SDS011;1848;51.042;7.066;2022-10-16T03:45:08;3.70;;;3.40;;
3663;SDS011;1848;51.042;7.066;2022-10-16T03:47:35;4.43;;;3.50;;
3663;SDS011;1848;51.042;7.066;2022-10-16T03:50:02;3.80;;;3.50;;
3663;SDS011;1848;51.042;7.066;2022-10-16T03:52:29;3.70;;;3.30;;
3663;SDS011;1848;51.042;7.066;2022-10-16T03:54:56;3.90;;;3.23;;
3663;SDS011;1848;51.042;7.066;2022-10-16T03:57:23;3.87;;;3.57;;
3663;SDS011;1848;51.042;7.066;2022-10-16T03:59:51;5.00;;;3.67;;
3663;SDS011;1848;51.042;7.066;2022-10-16T04:02:17;4.33;;;3.93;;
3663;SDS011;1848;51.042;7.066;2022-10-16T04:04:43;4.40;;;3.63;;
3663;SDS011;1848;51.042;7.066;2022-10-16T04:07:09;3.67;;;3.30;;
3663;SDS011;1848;51.042;7.066;2022-10-16T04:09:36;5.03;;;3.20;;
3663;SDS011;1848;51.042;7.066;2022-10-16T04:12:02;4.93;;;3.73;;
3663;SDS011;1848;51.042;7.066;2022-10-16T04:14:29;5.73;;;3.70;;
3663;SDS011;1848;51.042;7.066;2022-10-16T04:16:55;3.63;;;3.43;;
3663;SDS011;1848;51.042;7.066;2022-10-16T04:19:21;3.50;;;3.23;;
3663;SDS011;1848;51.042;7.066;2022-10-16T04:21:47;4.97;;;3.73;;
3663;SDS011;1848;51.042;7.066;2022-10-16T04:24:14;4.30;;;3.90;;
3663;SDS011;1848;51.042;7.066;2022-10-16T04:26:40;4.40;;;3.40;;
3663;SDS011;1848;51.042;7.066;2022-10-16T04:29:06;5.27;;;4.27;;
3663;SDS011;1848;51.042;7.066;2022-10-16T04:31:33;3.90;;;3.60;;
3663;SDS011;1848;51.042;7.066;2022-10-16T04:33:59;6.23;;;3.90;;
3663;SDS011;1848;51.042;7.066;2022-10-16T04:36:26;4.50;;;3.10;;
3663;SDS011;1848;51.042;7.066;2022-10-16T04:38:54;3.60;;;3.30;;
3663;SDS011;1848;51.042;7.066;2022-10-16T04:41:20;5.60;;;3.77;;
3663;SDS011;1848;51.042;7.066;2022-10-16T04:43:47;4.77;;;3.83;;
3663;SDS011;1848;51.042;7.066;2022-10-16T04:46:13;4.17;;;3.40;;
3663;SDS011;1848;51.042;7.066;2022-10-16T04:48:39;6.13;;;3.40;;
3663;SDS011;1848;51.042;7.066;2022-10-16T04:51:06;4.00;;;3.70;;
3663;SDS011;1848;51.042;7.066;2022-10-16T04:53:32;3.93;;;3.60;;
3663;SDS011;1848;51.042;7.066;2022-10-16T04:55:59;5.00;;;3.67;;
3663;SDS011;1848;51.042;7.066;2022-10-16T04:58:25;4.93;;;3.30;;
3663;SDS011;1848;51.042;7.066;2022-10-16T05:00:52;4.63;;;3.30;;
3663;SDS011;1848;51.042;7.066;2022-10-16T05:03:18;3.63;;;3.33;;
3663;SDS011;1848;51.042;7.066;2022-10-16T05:05:45;4.77;;;3.30;;
3663;SDS011;1848;51.042;7.066;2022-10-16T05:08:12;5.67;;;3.37;;
3663;SDS011;1848;51.042;7.066;2022-10-16T05:10:43;8.00;;;3.50;;
3663;SDS011;1848;51.042;7.066;2022-10-16T05:13:11;3.50;;;3.30;;
3663;SDS011;1848;51.042;7.066;2022-10-16T05:15:38;9.20;;;3.30;;
3663;SDS011;1848;51.042;7.066;2022-10-16T05:18:04;6.23;;;3.00;;
3663;SDS011;1848;51.042;7.066;2022-10-16T05:20:30;7.13;;;3.60;;
3663;SDS011;1848;51.042;7.066;2022-10-16T05:22:57;4.40;;;3.40;;
3663;SDS011;1848;51.042;7.066;2022-10-16T05:25:23;3.50;;;3.20;;
3663;SDS011;1848;51.042;7.066;2022-10-16T05:27:50;3.73;;;3.43;;
3663;SDS011;1848;51.042;7.066;2022-10-16T05:30:16;4.23;;;3.53;;
3663;SDS011;1848;51.042;7.066;2022-10-16T05:32:47;5.57;;;3.27;;
3663;SDS011;1848;51.042;7.066;2022-10-16T05:35:15;4.70;;;3.30;;
3663;SDS011;1848;51.042;7.066;2022-10-16T05:37:42;3.30;;;3.10;;
3663;SDS011;1848;51.042;7.066;2022-10-16T05:40:09;7.13;;;3.80;;
3663;SDS011;1848;51.042;7.066;2022-10-16T05:42:36;4.27;;;3.60;;
3663;SDS011;1848;51.042;7.066;2022-10-16T05:45:03;5.53;;;3.37;;
3663;SDS011;1848;51.042;7.066;2022-10-16T05:47:31;4.13;;;3.07;;
3663;SDS011;1848;51.042;7.066;2022-10-16T05:49:57;3.13;;;2.93;;
3663;SDS011;1848;51.042;7.066;2022-10-16T05:52:23;3.37;;;3.17;;
3663;SDS011;1848;51.042;7.066;2022-10-16T05:54:50;4.40;;;3.13;;
3663;SDS011;1848;51.042;7.066;2022-10-16T05:57:16;3.43;;;3.17;;
3663;SDS011;1848;51.042;7.066;2022-10-16T05:59:42;4.20;;;3.60;;
3663;SDS011;1848;51.042;7.066;2022-10-16T06:02:12;4.23;;;3.87;;
3663;SDS011;1848;51.042;7.066;2022-10-16T06:04:39;4.10;;;3.67;;
3663;SDS011;1848;51.042;7.066;2022-10-16T06:07:06;4.70;;;3.60;;
3663;SDS011;1848;51.042;7.066;2022-10-16T06:09:32;5.00;;;4.47;;
3663;SDS011;1848;51.042;7.066;2022-10-16T06:11:58;4.80;;;4.37;;
3663;SDS011;1848;51.042;7.066;2022-10-16T06:14:25;9.10;;;6.00;;
3663;SDS011;1848;51.042;7.066;2022-10-16T06:16:51;11.40;;;8.10;;
3663;SDS011;1848;51.042;7.066;2022-10-16T06:19:17;8.10;;;6.60;;
3663;SDS011;1848;51.042;7.066;2022-10-16T06:21:44;10.37;;;5.13;;
3663;SDS011;1848;51.042;7.066;2022-10-16T06:24:11;5.23;;;4.40;;
3663;SDS011;1848;51.042;7.066;2022-10-16T06:26:37;4.50;;;4.10;;
3663;SDS011;1848;51.042;7.066;2022-10-16T06:29:04;5.17;;;4.57;;
3663;SDS011;1848;51.042;7.066;2022-10-16T06:31:31;5.60;;;5.10;;
3663;SDS011;1848;51.042;7.066;2022-10-16T06:33:59;5.97;;;4.40;;
3663;SDS011;1848;51.042;7.066;2022-10-16T06:36:26;4.30;;;4.00;;
3663;SDS011;1848;51.042;7.066;2022-10-16T06:38:52;4.10;;;3.80;;
3663;SDS011;1848;51.042;7.066;2022-10-16T06:41:20;4.33;;;3.93;;
3663;SDS011;1848;51.042;7.066;2022-10-16T06:43:47;6.03;;;3.57;;
3663;SDS011;1848;51.042;7.066;2022-10-16T06:46:15;4.53;;;3.70;;
3663;SDS011;1848;51.042;7.066;2022-10-16T06:48:44;4.97;;;3.53;;
3663;SDS011;1848;51.042;7.066;2022-10-16T06:51:12;3.53;;;3.27;;
3663;SDS011;1848;51.042;7.066;2022-10-16T06:53:43;4.90;;;3.77;;
3663;SDS011;1848;51.042;7.066;2022-10-16T06:56:28;4.83;;;4.43;;
3663;SDS011;1848;51.042;7.066;2022-10-16T06:58:56;6.53;;;4.03;;
3663;SDS011;1848;51.042;7.066;2022-10-16T07:01:23;4.40;;;4.00;;
3663;SDS011;1848;51.042;7.066;2022-10-16T07:03:50;15.20;;;4.70;;
3663;SDS011;1848;51.042;7.066;2022-10-16T07:06:18;4.60;;;3.90;;
3663;SDS011;1848;51.042;7.066;2022-10-16T07:08:46;5.13;;;4.13;;
3663;SDS011;1848;51.042;7.066;2022-10-16T07:11:14;4.60;;;4.20;;
3663;SDS011;1848;51.042;7.066;2022-10-16T07:13:43;4.30;;;3.90;;
3663;SDS011;1848;51.042;7.066;2022-10-16T07:16:18;6.97;;;4.00;;
3663;SDS011;1848;51.042;7.066;2022-10-16T07:18:46;7.60;;;4.40;;
3663;SDS011;1848;51.042;7.066;2022-10-16T07:21:24;7.27;;;4.70;;
3663;SDS011;1848;51.042;7.066;2022-10-16T07:23:52;4.90;;;4.50;;
3663;SDS011;1848;51.042;7.066;2022-10-16T07:26:19;8.63;;;4.27;;
3663;SDS011;1848;51.042;7.066;2022-10-16T07:28:46;5.63;;;4.30;;
3663;SDS011;1848;51.042;7.066;2022-10-16T07:31:14;5.13;;;4.63;;
3663;SDS011;1848;51.042;7.066;2022-10-16T07:33:43;4.80;;;4.40;;
3663;SDS011;1848;51.042;7.066;2022-10-16T07:36:11;5.57;;;4.07;;
3663;SDS011;1848;51.042;7.066;2022-10-16T07:38:41;6.63;;;4.23;;
3663;SDS011;1848;51.042;7.066;2022-10-16T07:41:12;4.50;;;4.10;;
3663;SDS011;1848;51.042;7.066;2022-10-16T07:43:40;5.17;;;4.30;;
3663;SDS011;1848;51.042;7.066;2022-10-16T07:46:11;4.63;;;4.20;;
3663;SDS011;1848;51.042;7.066;2022-10-16T07:48:37;4.20;;;3.77;;
3663;SDS011;1848;51.042;7.066;2022-10-16T07:51:05;4.40;;;4.00;;
3663;SDS011;1848;51.042;7.066;2022-10-16T07:53:33;4.77;;;4.30;;
3663;SDS011;1848;51.042;7.066;2022-10-16T07:56:03;5.10;;;3.90;;
3663;SDS011;1848;51.042;7.066;2022-10-16T07:58:32;4.43;;;3.53;;
3663;SDS011;1848;51.042;7.066;2022-10-16T08:01:02;4.97;;;4.00;;
3663;SDS011;1848;51.042;7.066;2022-10-16T08:03:30;8.10;;;3.80;;
3663;SDS011;1848;51.042;7.066;2022-10-16T08:05:59;5.10;;;3.97;;
3663;SDS011;1848;51.042;7.066;2022-10-16T08:08:27;4.87;;;3.70;;
3663;SDS011;1848;51.042;7.066;2022-10-16T08:10:54;4.97;;;3.83;;
3663;SDS011;1848;51.042;7.066;2022-10-16T08:13:20;4.70;;;4.23;;
3663;SDS011;1848;51.042;7.066;2022-10-16T08:15:47;4.00;;;3.70;;
3663;SDS011;1848;51.042;7.066;2022-10-16T08:18:14;4.73;;;3.30;;
3663;SDS011;1848;51.042;7.066;2022-10-16T08:20:41;3.30;;;3.00;;
3663;SDS011;1848;51.042;7.066;2022-10-16T08:23:09;3.90;;;3.60;;
3663;SDS011;1848;51.042;7.066;2022-10-16T08:25:37;3.60;;;3.20;;
3663;SDS011;1848;51.042;7.066;2022-10-16T08:28:05;3.40;;;3.10;;
3663;SDS011;1848;51.042;7.066;2022-10-16T08:30:32;3.43;;;2.70;;
3663;SDS011;1848;51.042;7.066;2022-10-16T08:32:59;4.00;;;3.00;;
3663;SDS011;1848;51.042;7.066;2022-10-16T08:35:26;3.93;;;2.90;;
3663;SDS011;1848;51.042;7.066;2022-10-16T08:37:52;6.43;;;3.00;;
3663;SDS011;1848;51.042;7.066;2022-10-16T08:40:20;2.53;;;2.30;;
3663;SDS011;1848;51.042;7.066;2022-10-16T08:48:20;3.60;;;2.20;;
3663;SDS011;1848;51.042;7.066;2022-10-16T08:50:53;2.33;;;2.03;;
3663;SDS011;1848;51.042;7.066;2022-10-16T08:53:30;3.30;;;2.00;;
3663;SDS011;1848;51.042;7.066;2022-10-16T08:56:03;3.50;;;1.90;;
3663;SDS011;1848;51.042;7.066;2022-10-16T08:58:30;4.33;;;1.90;;
3663;SDS011;1848;51.042;7.066;2022-10-16T09:00:57;4.07;;;2.30;;
3663;SDS011;1848;51.042;7.066;2022-10-16T09:06:10;2.27;;;2.07;;
3663;SDS011;1848;51.042;7.066;2022-10-16T09:08:51;2.10;;;1.90;;
3663;SDS011;1848;51.042;7.066;2022-10-16T09:17:30;2.33;;;1.83;;
3663;SDS011;1848;51.042;7.066;2022-10-16T09:22:44;2.20;;;1.70;;
3663;SDS011;1848;51.042;7.066;2022-10-16T09:25:20;3.03;;;1.53;;
3663;SDS011;1848;51.042;7.066;2022-10-16T09:27:48;2.27;;;1.70;;
3663;SDS011;1848;51.042;7.066;2022-10-16T09:30:18;6.47;;;1.80;;
3663;SDS011;1848;51.042;7.066;2022-10-16T09:32:47;1.40;;;1.30;;
3663;SDS011;1848;51.042;7.066;2022-10-16T09:35:21;1.60;;;1.40;;
3663;SDS011;1848;51.042;7.066;2022-10-16T09:37:53;2.80;;;1.50;;
3663;SDS011;1848;51.042;7.066;2022-10-16T09:40:24;1.50;;;1.30;;
3663;SDS011;1848;51.042;7.066;2022-10-16T09:42:56;2.77;;;1.40;;
3663;SDS011;1848;51.042;7.066;2022-10-16T09:45:27;1.93;;;1.37;;
3663;SDS011;1848;51.042;7.066;2022-10-16T09:47:54;2.20;;;1.37;;
3663;SDS011;1848;51.042;7.066;2022-10-16T09:50:26;1.97;;;1.20;;
3663;SDS011;1848;51.042;7.066;2022-10-16T09:53:13;2.00;;;1.33;;
3663;SDS011;1848;51.042;7.066;2022-10-16T09:55:47;5.00;;;1.30;;
3663;SDS011;1848;51.042;7.066;2022-10-16T09:58:18;2.13;;;1.27;;
3663;SDS011;1848;51.042;7.066;2022-10-16T10:00:48;4.23;;;1.30;;
3663;SDS011;1848;51.042;7.066;2022-10-16T10:03:27;5.80;;;1.10;;
3663;SDS011;1848;51.042;7.066;2022-10-16T10:06:06;2.23;;;1.27;;
3663;SDS011;1848;51.042;7.066;2022-10-16T10:08:56;1.77;;;1.00;;
3663;SDS011;1848;51.042;7.066;2022-10-16T10:14:18;1.60;;;1.17;;
3663;SDS011;1848;51.042;7.066;2022-10-16T10:19:37;1.77;;;1.00;;
3663;SDS011;1848;51.042;7.066;2022-10-16T10:27:44;1.50;;;1.20;;
3663;SDS011;1848;51.042;7.066;2022-10-16T10:30:27;2.47;;;1.00;;
3663;SDS011;1848;51.042;7.066;2022-10-16T10:33:12;2.73;;;1.03;;
3663;SDS011;1848;51.042;7.066;2022-10-16T10:38:52;1.60;;;0.93;;
3663;SDS011;1848;51.042;7.066;2022-10-16T10:41:30;2.00;;;1.20;;
3663;SDS011;1848;51.042;7.066;2022-10-16T10:44:15;3.20;;;1.10;;
3663;SDS011;1848;51.042;7.066;2022-10-16T10:55:10;4.07;;;1.40;;
3663;SDS011;1848;51.042;7.066;2022-10-16T10:57:48;1.57;;;1.13;;
3663;SDS011;1848;51.042;7.066;2022-10-16T11:00:41;1.30;;;1.10;;
3663;SDS011;1848;51.042;7.066;2022-10-16T11:05:55;2.37;;;1.20;;
3663;SDS011;1848;51.042;7.066;2022-10-16T11:08:27;1.50;;;1.23;;
3663;SDS011;1848;51.042;7.066;2022-10-16T11:11:18;1.67;;;1.20;;
3663;SDS011;1848;51.042;7.066;2022-10-16T11:13:55;2.80;;;1.10;;
3663;SDS011;1848;51.042;7.066;2022-10-16T11:16:30;1.30;;;1.17;;
3663;SDS011;1848;51.042;7.066;2022-10-16T11:21:51;3.70;;;1.40;;
3663;SDS011;1848;51.042;7.066;2022-10-16T11:24:34;2.70;;;1.03;;
3663;SDS011;1848;51.042;7.066;2022-10-16T11:27:08;2.03;;;1.37;;
3663;SDS011;1848;51.042;7.066;2022-10-16T11:29:41;1.30;;;1.00;;
3663;SDS011;1848;51.042;7.066;2022-10-16T11:32:21;6.00;;;1.40;;
3663;SDS011;1848;51.042;7.066;2022-10-16T11:34:55;2.60;;;1.20;;
3663;SDS011;1848;51.042;7.066;2022-10-16T11:37:38;1.97;;;1.13;;
3663;SDS011;1848;51.042;7.066;2022-10-16T11:40:25;2.10;;;1.30;;
3663;SDS011;1848;51.042;7.066;2022-10-16T11:42:58;1.60;;;1.50;;
3663;SDS011;1848;51.042;7.066;2022-10-16T11:50:46;3.30;;;1.30;;
3663;SDS011;1848;51.042;7.066;2022-10-16T11:53:29;2.70;;;1.30;;
3663;SDS011;1848;51.042;7.066;2022-10-16T11:56:05;2.80;;;1.10;;
3663;SDS011;1848;51.042;7.066;2022-10-16T11:58:33;2.30;;;1.03;;
3663;SDS011;1848;51.042;7.066;2022-10-16T12:06:47;1.90;;;1.30;;
3663;SDS011;1848;51.042;7.066;2022-10-16T12:09:25;1.97;;;1.23;;
3663;SDS011;1848;51.042;7.066;2022-10-16T12:11:54;2.47;;;1.50;;
3663;SDS011;1848;51.042;7.066;2022-10-16T12:17:03;4.43;;;1.40;;
3663;SDS011;1848;51.042;7.066;2022-10-16T12:22:50;3.03;;;1.60;;
3663;SDS011;1848;51.042;7.066;2022-10-16T12:25:27;4.97;;;1.57;;
3663;SDS011;1848;51.042;7.066;2022-10-16T12:27:58;3.63;;;1.57;;
3663;SDS011;1848;51.042;7.066;2022-10-16T12:30:26;2.33;;;1.30;;
3663;SDS011;1848;51.042;7.066;2022-10-16T12:33:04;1.70;;;1.30;;
3663;SDS011;1848;51.042;7.066;2022-10-16T12:35:33;1.90;;;1.17;;
3663;SDS011;1848;51.042;7.066;2022-10-16T12:38:14;4.20;;;1.50;;
3663;SDS011;1848;51.042;7.066;2022-10-16T12:40:44;2.37;;;1.40;;
3663;SDS011;1848;51.042;7.066;2022-10-16T12:45:59;1.77;;;1.40;;
3663;SDS011;1848;51.042;7.066;2022-10-16T12:48:34;2.60;;;1.97;;
3663;SDS011;1848;51.042;7.066;2022-10-16T12:59:40;1.40;;;1.30;;
3663;SDS011;1848;51.042;7.066;2022-10-16T13:07:56;2.83;;;1.40;;
3663;SDS011;1848;51.042;7.066;2022-10-16T13:13:05;7.93;;;1.60;;
3663;SDS011;1848;51.042;7.066;2022-10-16T13:15:41;2.03;;;1.20;;
3663;SDS011;1848;51.042;7.066;2022-10-16T13:23:59;1.57;;;1.47;;
3663;SDS011;1848;51.042;7.066;2022-10-16T13:26:41;3.17;;;1.30;;
3663;SDS011;1848;51.042;7.066;2022-10-16T13:29:20;2.10;;;1.20;;
3663;SDS011;1848;51.042;7.066;2022-10-16T13:31:47;5.77;;;1.57;;
3663;SDS011;1848;51.042;7.066;2022-10-16T13:34:18;2.90;;;1.60;;
3663;SDS011;1848;51.042;7.066;2022-10-16T13:36:50;1.60;;;1.50;;
3663;SDS011;1848;51.042;7.066;2022-10-16T13:39:25;4.90;;;1.73;;
3663;SDS011;1848;51.042;7.066;2022-10-16T13:44:43;1.77;;;1.40;;
3663;SDS011;1848;51.042;7.066;2022-10-16T13:47:19;3.90;;;1.53;;
3663;SDS011;1848;51.042;7.066;2022-10-16T13:49:48;3.13;;;1.40;;
3663;SDS011;1848;51.042;7.066;2022-10-16T13:52:29;1.90;;;1.37;;
3663;SDS011;1848;51.042;7.066;2022-10-16T13:54:56;1.60;;;1.50;;
3663;SDS011;1848;51.042;7.066;2022-10-16T13:57:27;2.63;;;1.37;;
3663;SDS011;1848;51.042;7.066;2022-10-16T13:59:54;5.23;;;1.43;;
3663;SDS011;1848;51.042;7.066;2022-10-16T14:02:22;2.10;;;1.30;;
3663;SDS011;1848;51.042;7.066;2022-10-16T14:04:53;2.93;;;1.40;;
3663;SDS011;1848;51.042;7.066;2022-10-16T14:07:24;1.90;;;1.40;;
3663;SDS011;1848;51.042;7.066;2022-10-16T14:09:53;2.28;;;1.30;;
3663;SDS011;1848;51.042;7.066;2022-10-16T14:12:21;3.90;;;1.33;;
3663;SDS011;1848;51.042;7.066;2022-10-16T14:14:53;2.60;;;1.90;;
3663;SDS011;1848;51.042;7.066;2022-10-16T14:17:25;2.70;;;1.47;;
3663;SDS011;1848;51.042;7.066;2022-10-16T14:19:55;2.60;;;1.60;;
3663;SDS011;1848;51.042;7.066;2022-10-16T14:22:36;1.67;;;1.53;;
3663;SDS011;1848;51.042;7.066;2022-10-16T14:27:45;2.20;;;1.70;;
3663;SDS011;1848;51.042;7.066;2022-10-16T14:30:53;3.10;;;2.10;;
3663;SDS011;1848;51.042;7.066;2022-10-16T14:33:33;1.60;;;1.40;;
3663;SDS011;1848;51.042;7.066;2022-10-16T14:36:04;3.33;;;1.53;;
3663;SDS011;1848;51.042;7.066;2022-10-16T14:38:38;2.10;;;1.67;;
3663;SDS011;1848;51.042;7.066;2022-10-16T14:41:06;3.37;;;2.10;;
3663;SDS011;1848;51.042;7.066;2022-10-16T14:43:36;2.33;;;2.00;;
3663;SDS011;1848;51.042;7.066;2022-10-16T14:46:07;2.43;;;1.40;;
3663;SDS011;1848;51.042;7.066;2022-10-16T14:48:47;3.17;;;1.47;;
3663;SDS011;1848;51.042;7.066;2022-10-16T14:51:17;3.43;;;1.60;;
3663;SDS011;1848;51.042;7.066;2022-10-16T14:53:45;5.60;;;2.07;;
3663;SDS011;1848;51.042;7.066;2022-10-16T14:56:19;1.60;;;1.20;;
3663;SDS011;1848;51.042;7.066;2022-10-16T14:58:50;2.83;;;1.40;;
3663;SDS011;1848;51.042;7.066;2022-10-16T15:01:17;2.60;;;1.80;;
3663;SDS011;1848;51.042;7.066;2022-10-16T15:03:44;4.73;;;1.93;;
3663;SDS011;1848;51.042;7.066;2022-10-16T15:06:11;4.93;;;1.30;;
3663;SDS011;1848;51.042;7.066;2022-10-16T15:08:38;2.93;;;1.87;;
3663;SDS011;1848;51.042;7.066;2022-10-16T15:11:07;3.53;;;1.60;;
3663;SDS011;1848;51.042;7.066;2022-10-16T15:13:38;3.87;;;1.53;;
3663;SDS011;1848;51.042;7.066;2022-10-16T15:16:07;3.00;;;1.60;;
3663;SDS011;1848;51.042;7.066;2022-10-16T15:18:36;1.97;;;1.73;;
3663;SDS011;1848;51.042;7.066;2022-10-16T15:21:02;2.33;;;1.53;;
3663;SDS011;1848;51.042;7.066;2022-10-16T15:23:29;2.00;;;1.40;;
3663;SDS011;1848;51.042;7.066;2022-10-16T15:25:56;2.23;;;1.50;;
3663;SDS011;1848;51.042;7.066;2022-10-16T15:28:23;3.37;;;1.80;;
3663;SDS011;1848;51.042;7.066;2022-10-16T15:30:52;6.40;;;2.10;;
3663;SDS011;1848;51.042;7.066;2022-10-16T15:33:21;1.67;;;1.57;;
3663;SDS011;1848;51.042;7.066;2022-10-16T15:35:50;2.17;;;1.70;;
3663;SDS011;1848;51.042;7.066;2022-10-16T15:38:18;2.60;;;1.60;;
3663;SDS011;1848;51.042;7.066;2022-10-16T15:40:45;5.70;;;1.80;;
3663;SDS011;1848;51.042;7.066;2022-10-16T15:43:12;3.67;;;1.60;;
3663;SDS011;1848;51.042;7.066;2022-10-16T15:45:38;4.50;;;1.67;;
3663;SDS011;1848;51.042;7.066;2022-10-16T15:48:05;3.07;;;1.87;;
3663;SDS011;1848;51.042;7.066;2022-10-16T15:50:32;4.53;;;1.70;;
3663;SDS011;1848;51.042;7.066;2022-10-16T15:52:58;3.17;;;2.77;;
3663;SDS011;1848;51.042;7.066;2022-10-16T15:55:25;2.17;;;1.80;;
3663;SDS011;1848;51.042;7.066;2022-10-16T15:57:51;2.10;;;1.90;;
3663;SDS011;1848;51.042;7.066;2022-10-16T16:00:18;4.40;;;2.00;;
3663;SDS011;1848;51.042;7.066;2022-10-16T16:02:51;2.07;;;1.97;;
3663;SDS011;1848;51.042;7.066;2022-10-16T16:05:19;1.60;;;1.50;;
3663;SDS011;1848;51.042;7.066;2022-10-16T16:07:47;3.97;;;2.20;;
3663;SDS011;1848;51.042;7.066;2022-10-16T16:10:14;3.50;;;1.90;;
3663;SDS011;1848;51.042;7.066;2022-10-16T16:12:41;4.80;;;1.70;;
3663;SDS011;1848;51.042;7.066;2022-10-16T16:15:08;2.90;;;2.10;;
3663;SDS011;1848;51.042;7.066;2022-10-16T16:17:36;1.80;;;1.70;;
3663;SDS011;1848;51.042;7.066;2022-10-16T16:20:03;2.37;;;2.00;;
3663;SDS011;1848;51.042;7.066;2022-10-16T16:22:31;2.43;;;1.73;;
3663;SDS011;1848;51.042;7.066;2022-10-16T16:24:57;2.70;;;1.90;;
3663;SDS011;1848;51.042;7.066;2022-10-16T16:27:23;4.13;;;2.73;;
3663;SDS011;1848;51.042;7.066;2022-10-16T16:29:51;2.10;;;2.00;;
3663;SDS011;1848;51.042;7.066;2022-10-16T16:32:19;4.60;;;1.77;;
3663;SDS011;1848;51.042;7.066;2022-10-16T16:34:45;4.50;;;2.20;;
3663;SDS011;1848;51.042;7.066;2022-10-16T16:37:12;3.30;;;2.20;;
3663;SDS011;1848;51.042;7.066;2022-10-16T16:39:38;3.60;;;1.73;;
3663;SDS011;1848;51.042;7.066;2022-10-16T16:42:04;7.23;;;2.00;;
3663;SDS011;1848;51.042;7.066;2022-10-16T16:44:33;3.27;;;2.03;;
3663;SDS011;1848;51.042;7.066;2022-10-16T16:47:02;3.77;;;1.97;;
3663;SDS011;1848;51.042;7.066;2022-10-16T16:49:29;3.87;;;2.00;;
3663;SDS011;1848;51.042;7.066;2022-10-16T16:51:56;1.83;;;1.73;;
3663;SDS011;1848;51.042;7.066;2022-10-16T16:54:22;3.57;;;1.80;;
3663;SDS011;1848;51.042;7.066;2022-10-16T16:56:49;3.83;;;2.10;;
3663;SDS011;1848;51.042;7.066;2022-10-16T16:59:17;4.13;;;2.20;;
3663;SDS011;1848;51.042;7.066;2022-10-16T17:01:45;2.50;;;1.80;;
3663;SDS011;1848;51.042;7.066;2022-10-16T17:04:15;2.10;;;2.00;;
3663;SDS011;1848;51.042;7.066;2022-10-16T17:06:41;4.30;;;2.10;;
3663;SDS011;1848;51.042;7.066;2022-10-16T17:09:08;5.30;;;2.57;;
3663;SDS011;1848;51.042;7.066;2022-10-16T17:11:38;3.23;;;2.03;;